createdAt,value
2017-06-30T00:00:05.942Z,933.23
2017-06-30T00:00:19.409Z,933.23
2017-06-30T00:00:32.892Z,933.24
2017-06-30T00:00:46.294Z,933.23
2017-06-30T00:00:59.732Z,933.25
2017-06-30T00:01:13.243Z,933.23
2017-06-30T00:01:26.646Z,933.21
2017-06-30T00:01:39.543Z,933.22
2017-06-30T00:01:53.039Z,933.22
2017-06-30T00:02:06.477Z,933.21
2017-06-30T00:02:19.909Z,933.23
2017-06-30T00:02:32.838Z,933.22
2017-06-30T00:02:46.337Z,933.2
2017-06-30T00:02:59.820Z,933.23
2017-06-30T00:03:13.278Z,933.22
2017-06-30T00:03:26.778Z,933.23
2017-06-30T00:03:40.194Z,933.21
2017-06-30T00:03:53.150Z,933.2
2017-06-30T00:04:06.631Z,933.23
2017-06-30T00:04:20.091Z,933.26
2017-06-30T00:04:33.025Z,933.23
2017-06-30T00:04:46.479Z,933.24
2017-06-30T00:04:59.935Z,933.23
2017-06-30T00:05:12.810Z,933.25
2017-06-30T00:05:25.753Z,933.24
2017-06-30T00:05:39.213Z,933.26
2017-06-30T00:05:52.669Z,933.25
2017-06-30T00:06:05.605Z,933.25
2017-06-30T00:06:18.521Z,933.25
2017-06-30T00:06:31.956Z,933.25
2017-06-30T00:06:45.400Z,933.26
2017-06-30T00:06:58.868Z,933.24
2017-06-30T00:07:12.316Z,933.26
2017-06-30T00:07:25.772Z,933.26
2017-06-30T00:07:39.529Z,933.26
2017-06-30T00:07:52.950Z,933.25
2017-06-30T00:08:06.363Z,933.26
2017-06-30T00:08:19.334Z,933.29
2017-06-30T00:08:32.325Z,933.26
2017-06-30T00:08:45.856Z,933.28
2017-06-30T00:08:59.393Z,933.28
2017-06-30T00:09:12.814Z,933.29
2017-06-30T00:09:26.270Z,933.28
2017-06-30T00:09:39.701Z,933.32
2017-06-30T00:09:53.106Z,933.28
2017-06-30T00:10:06.549Z,933.27
2017-06-30T00:10:19.985Z,933.33
2017-06-30T00:10:32.899Z,933.31
2017-06-30T00:10:45.862Z,933.26
2017-06-30T00:10:59.392Z,933.29
2017-06-30T00:11:12.871Z,933.3
2017-06-30T00:11:26.355Z,933.31
2017-06-30T00:11:39.818Z,933.34
2017-06-30T00:11:53.288Z,933.33
2017-06-30T00:12:06.699Z,933.33
2017-06-30T00:12:20.161Z,933.34
2017-06-30T00:12:33.632Z,933.33
2017-06-30T00:12:47.078Z,933.33
2017-06-30T00:13:00.008Z,933.33
2017-06-30T00:13:13.494Z,933.33
2017-06-30T00:13:26.459Z,933.35
2017-06-30T00:13:39.883Z,933.34
2017-06-30T00:13:53.356Z,933.33
2017-06-30T00:14:06.817Z,933.32
2017-06-30T00:14:20.236Z,933.34
2017-06-30T00:14:33.120Z,933.33
2017-06-30T00:14:46.612Z,933.37
2017-06-30T00:15:00.042Z,933.37
2017-06-30T00:15:13.536Z,933.4
2017-06-30T00:15:27.022Z,933.36
2017-06-30T00:15:39.990Z,933.38
2017-06-30T00:15:53.387Z,933.39
2017-06-30T00:16:06.814Z,933.4
2017-06-30T00:16:20.276Z,933.4
2017-06-30T00:16:33.674Z,933.4
2017-06-30T00:16:47.097Z,933.42
2017-06-30T00:17:00.544Z,933.39
2017-06-30T00:17:14.047Z,933.41
2017-06-30T00:17:27.009Z,933.4
2017-06-30T00:17:39.897Z,933.41
2017-06-30T00:17:53.364Z,933.42
2017-06-30T00:18:06.810Z,933.38
2017-06-30T00:18:19.806Z,933.39
2017-06-30T00:18:32.757Z,933.4
2017-06-30T00:18:46.285Z,933.39
2017-06-30T00:18:59.781Z,933.38
2017-06-30T00:19:13.217Z,933.41
2017-06-30T00:19:26.685Z,933.37
2017-06-30T00:19:40.184Z,933.4
2017-06-30T00:19:53.636Z,933.36
2017-06-30T00:20:07.098Z,933.36
2017-06-30T00:20:20.577Z,933.38
2017-06-30T00:20:34.035Z,933.36
2017-06-30T00:20:47.018Z,933.4
2017-06-30T00:21:00.430Z,933.38
2017-06-30T00:21:13.879Z,933.4
2017-06-30T00:21:27.310Z,933.42
2017-06-30T00:21:40.701Z,933.41
2017-06-30T00:21:54.162Z,933.39
2017-06-30T00:22:07.126Z,933.39
2017-06-30T00:22:20.577Z,933.43
2017-06-30T00:22:34.037Z,933.38
2017-06-30T00:22:47.790Z,933.38
2017-06-30T00:23:01.248Z,933.36
2017-06-30T00:23:14.226Z,933.39
2017-06-30T00:23:27.178Z,933.42
2017-06-30T00:23:40.587Z,933.4
2017-06-30T00:23:54.078Z,933.43
2017-06-30T00:24:06.997Z,933.4
2017-06-30T00:24:20.490Z,933.42
2017-06-30T00:24:33.420Z,933.42
2017-06-30T00:24:46.827Z,933.4
2017-06-30T00:25:00.231Z,933.39
2017-06-30T00:25:13.217Z,933.44
2017-06-30T00:25:26.691Z,933.41
2017-06-30T00:25:40.099Z,933.42
2017-06-30T00:25:53.519Z,933.43
2017-06-30T00:26:06.980Z,933.41
2017-06-30T00:26:20.419Z,933.44
2017-06-30T00:26:33.875Z,933.43
2017-06-30T00:26:46.807Z,933.44
2017-06-30T00:27:00.279Z,933.4
2017-06-30T00:27:12.131Z,933.43
2017-06-30T00:27:25.588Z,933.42
2017-06-30T00:27:39.019Z,933.42
2017-06-30T00:27:51.984Z,933.42
2017-06-30T00:28:04.893Z,933.43
2017-06-30T00:28:18.311Z,933.42
2017-06-30T00:28:31.777Z,933.41
2017-06-30T00:28:45.256Z,933.41
2017-06-30T00:28:58.691Z,933.45
2017-06-30T00:29:12.121Z,933.42
2017-06-30T00:29:25.600Z,933.43
2017-06-30T00:29:39.071Z,933.42
2017-06-30T00:29:52.455Z,933.44
2017-06-30T00:30:05.898Z,933.44
2017-06-30T00:30:18.830Z,933.41
2017-06-30T00:30:32.263Z,933.44
2017-06-30T00:30:45.707Z,933.44
2017-06-30T00:30:59.109Z,933.45
2017-06-30T00:31:12.603Z,933.48
2017-06-30T00:31:25.977Z,933.48
2017-06-30T00:31:39.362Z,933.45
2017-06-30T00:31:52.826Z,933.47
2017-06-30T00:32:06.276Z,933.47
2017-06-30T00:32:19.199Z,933.46
2017-06-30T00:32:32.657Z,933.47
2017-06-30T00:32:46.116Z,933.49
2017-06-30T00:32:59.594Z,933.51
2017-06-30T00:33:13.019Z,933.47
2017-06-30T00:33:26.461Z,933.47
2017-06-30T00:33:39.359Z,933.5
2017-06-30T00:33:52.857Z,933.49
2017-06-30T00:34:06.316Z,933.49
2017-06-30T00:34:19.764Z,933.5
2017-06-30T00:34:33.177Z,933.51
2017-06-30T00:34:46.628Z,933.55
2017-06-30T00:35:00.061Z,933.51
2017-06-30T00:35:12.930Z,933.53
2017-06-30T00:35:26.334Z,933.52
2017-06-30T00:35:39.279Z,933.49
2017-06-30T00:35:52.247Z,933.48
2017-06-30T00:36:05.714Z,933.5
2017-06-30T00:36:19.103Z,933.5
2017-06-30T00:36:32.575Z,933.49
2017-06-30T00:36:45.519Z,933.5
2017-06-30T00:36:58.917Z,933.51
2017-06-30T00:37:12.475Z,933.51
2017-06-30T00:37:25.945Z,933.53
2017-06-30T00:37:39.391Z,933.53
2017-06-30T00:37:52.567Z,933.53
2017-06-30T00:38:06.062Z,933.5
2017-06-30T00:38:19.017Z,933.53
2017-06-30T00:38:32.460Z,933.53
2017-06-30T00:38:45.302Z,933.51
2017-06-30T00:38:58.778Z,933.53
2017-06-30T00:39:12.255Z,933.53
2017-06-30T00:39:25.719Z,933.54
2017-06-30T00:39:39.182Z,933.55
2017-06-30T00:39:52.675Z,933.53
2017-06-30T00:40:06.437Z,933.53
2017-06-30T00:40:19.866Z,933.54
2017-06-30T00:40:33.279Z,933.51
2017-06-30T00:40:46.204Z,933.56
2017-06-30T00:40:59.617Z,933.56
2017-06-30T00:41:13.102Z,933.59
2017-06-30T00:41:26.572Z,933.55
2017-06-30T00:41:39.461Z,933.55
2017-06-30T00:41:52.957Z,933.58
2017-06-30T00:42:06.403Z,933.56
2017-06-30T00:42:19.894Z,933.56
2017-06-30T00:42:33.316Z,933.56
2017-06-30T00:42:46.184Z,933.58
2017-06-30T00:42:59.592Z,933.55
2017-06-30T00:43:13.014Z,933.56
2017-06-30T00:43:26.459Z,933.53
2017-06-30T00:43:39.904Z,933.56
2017-06-30T00:43:53.363Z,933.6
2017-06-30T00:44:06.828Z,933.54
2017-06-30T00:44:20.297Z,933.59
2017-06-30T00:44:33.813Z,933.61
2017-06-30T00:44:47.268Z,933.56
2017-06-30T00:45:00.742Z,933.58
2017-06-30T00:45:14.176Z,933.57
2017-06-30T00:45:27.621Z,933.58
2017-06-30T00:45:41.022Z,933.59
2017-06-30T00:45:54.491Z,933.6
2017-06-30T00:46:07.969Z,933.62
2017-06-30T00:46:21.417Z,933.6
2017-06-30T00:46:34.901Z,933.6
2017-06-30T00:46:48.429Z,933.62
2017-06-30T00:47:01.819Z,933.6
2017-06-30T00:47:15.262Z,933.6
2017-06-30T00:47:28.204Z,933.56
2017-06-30T00:47:41.679Z,933.61
2017-06-30T00:47:55.115Z,933.63
2017-06-30T00:48:08.062Z,933.59
2017-06-30T00:48:21.494Z,933.61
2017-06-30T00:48:34.893Z,933.58
2017-06-30T00:48:48.351Z,933.57
2017-06-30T00:49:01.774Z,933.58
2017-06-30T00:49:15.309Z,933.55
2017-06-30T00:49:28.793Z,933.59
2017-06-30T00:49:42.228Z,933.6
2017-06-30T00:49:55.662Z,933.59
2017-06-30T00:50:09.098Z,933.59
2017-06-30T00:50:22.535Z,933.59
2017-06-30T00:50:35.985Z,933.59
2017-06-30T00:50:49.469Z,933.6
2017-06-30T00:51:02.883Z,933.57
2017-06-30T00:51:15.837Z,933.56
2017-06-30T00:51:29.257Z,933.58
2017-06-30T00:51:42.795Z,933.59
2017-06-30T00:51:56.273Z,933.56
2017-06-30T00:52:09.756Z,933.56
2017-06-30T00:52:23.221Z,933.55
2017-06-30T00:52:36.725Z,933.59
2017-06-30T00:52:50.152Z,933.58
2017-06-30T00:53:03.881Z,933.57
2017-06-30T00:53:17.429Z,933.56
2017-06-30T00:53:30.878Z,933.53
2017-06-30T00:53:44.270Z,933.57
2017-06-30T00:53:57.729Z,933.55
2017-06-30T00:54:11.231Z,933.55
2017-06-30T00:54:24.700Z,933.56
2017-06-30T00:54:38.110Z,933.57
2017-06-30T00:54:51.595Z,933.58
2017-06-30T00:55:04.997Z,933.55
2017-06-30T00:55:18.462Z,933.57
2017-06-30T00:55:31.921Z,933.58
2017-06-30T00:55:45.363Z,933.53
2017-06-30T00:55:58.840Z,933.58
2017-06-30T00:56:12.265Z,933.51
2017-06-30T00:56:25.709Z,933.55
2017-06-30T00:56:39.172Z,933.58
2017-06-30T00:56:52.599Z,933.59
2017-06-30T00:57:06.053Z,933.52
2017-06-30T00:57:19.451Z,933.56
2017-06-30T00:57:32.850Z,933.57
2017-06-30T00:57:46.262Z,933.58
2017-06-30T00:57:59.145Z,933.59
2017-06-30T00:58:12.576Z,933.59
2017-06-30T00:58:26.026Z,933.56
2017-06-30T00:58:39.483Z,933.59
2017-06-30T00:58:52.978Z,933.57
2017-06-30T00:59:06.430Z,933.58
2017-06-30T00:59:19.811Z,933.58
2017-06-30T00:59:33.276Z,933.6
2017-06-30T00:59:46.753Z,933.59
2017-06-30T01:00:00.193Z,933.58
2017-06-30T01:00:13.656Z,933.59
2017-06-30T01:00:27.084Z,933.59
2017-06-30T01:00:40.563Z,933.62
2017-06-30T01:00:53.986Z,933.61
2017-06-30T01:01:06.890Z,933.62
2017-06-30T01:01:20.307Z,933.59
2017-06-30T01:01:32.719Z,933.6
2017-06-30T01:01:46.166Z,933.58
2017-06-30T01:01:59.107Z,933.61
2017-06-30T01:02:12.601Z,933.62
2017-06-30T01:02:26.024Z,933.62
2017-06-30T01:02:39.504Z,933.57
2017-06-30T01:02:52.951Z,933.62
2017-06-30T01:03:06.425Z,933.61
2017-06-30T01:03:19.886Z,933.61
2017-06-30T01:03:33.293Z,933.62
2017-06-30T01:03:46.701Z,933.64
2017-06-30T01:04:00.145Z,933.64
2017-06-30T01:04:13.525Z,933.63
2017-06-30T01:04:26.979Z,933.65
2017-06-30T01:04:40.461Z,933.61
2017-06-30T01:04:53.335Z,933.63
2017-06-30T01:05:06.238Z,933.65
2017-06-30T01:05:19.756Z,933.63
2017-06-30T01:05:33.261Z,933.63
2017-06-30T01:05:46.693Z,933.6
2017-06-30T01:06:00.125Z,933.6
2017-06-30T01:06:13.563Z,933.6
2017-06-30T01:06:26.995Z,933.61
2017-06-30T01:06:40.454Z,933.65
2017-06-30T01:06:53.880Z,933.64
2017-06-30T01:07:07.315Z,933.66
2017-06-30T01:07:20.215Z,933.67
2017-06-30T01:07:33.644Z,933.66
2017-06-30T01:07:47.118Z,933.68
2017-06-30T01:08:00.756Z,933.68
2017-06-30T01:08:14.277Z,933.67
2017-06-30T01:08:27.707Z,933.63
2017-06-30T01:08:41.141Z,933.63
2017-06-30T01:08:54.605Z,933.64
2017-06-30T01:09:07.510Z,933.65
2017-06-30T01:09:20.977Z,933.64
2017-06-30T01:09:34.442Z,933.67
2017-06-30T01:09:47.907Z,933.63
2017-06-30T01:10:01.359Z,933.65
2017-06-30T01:10:14.829Z,933.63
2017-06-30T01:10:28.252Z,933.66
2017-06-30T01:10:40.656Z,933.63
2017-06-30T01:10:54.059Z,933.64
2017-06-30T01:11:07.452Z,933.67
2017-06-30T01:11:20.849Z,933.65
2017-06-30T01:11:33.810Z,933.66
2017-06-30T01:11:46.708Z,933.63
2017-06-30T01:12:00.173Z,933.65
2017-06-30T01:12:13.635Z,933.66
2017-06-30T01:12:27.067Z,933.69
2017-06-30T01:12:39.965Z,933.61
2017-06-30T01:12:53.392Z,933.63
2017-06-30T01:13:06.341Z,933.62
2017-06-30T01:13:19.783Z,933.61
2017-06-30T01:13:33.231Z,933.66
2017-06-30T01:13:46.694Z,933.63
2017-06-30T01:14:00.163Z,933.67
2017-06-30T01:14:13.637Z,933.66
2017-06-30T01:14:27.115Z,933.63
2017-06-30T01:14:40.593Z,933.62
2017-06-30T01:14:54.116Z,933.61
2017-06-30T01:15:07.553Z,933.65
2017-06-30T01:15:20.971Z,933.62
2017-06-30T01:15:33.951Z,933.62
2017-06-30T01:15:47.432Z,933.63
2017-06-30T01:16:00.870Z,933.59
2017-06-30T01:16:14.315Z,933.65
2017-06-30T01:16:27.752Z,933.63
2017-06-30T01:16:41.165Z,933.6
2017-06-30T01:16:54.658Z,933.6
2017-06-30T01:17:08.143Z,933.59
2017-06-30T01:17:21.622Z,933.64
2017-06-30T01:17:33.986Z,933.64
2017-06-30T01:17:47.445Z,933.65
2017-06-30T01:18:01.138Z,933.58
2017-06-30T01:18:14.631Z,933.62
2017-06-30T01:18:27.551Z,933.57
2017-06-30T01:18:40.647Z,933.58
2017-06-30T01:18:54.116Z,933.58
2017-06-30T01:19:07.046Z,933.62
2017-06-30T01:19:20.228Z,933.58
2017-06-30T01:19:33.656Z,933.59
2017-06-30T01:19:47.088Z,933.56
2017-06-30T01:20:00.562Z,933.6
2017-06-30T01:20:13.466Z,933.61
2017-06-30T01:20:26.944Z,933.58
2017-06-30T01:20:39.349Z,933.56
2017-06-30T01:20:52.776Z,933.58
2017-06-30T01:21:06.208Z,933.57
2017-06-30T01:21:19.636Z,933.57
2017-06-30T01:21:32.567Z,933.58
2017-06-30T01:21:45.967Z,933.59
2017-06-30T01:21:59.424Z,933.58
2017-06-30T01:22:12.864Z,933.57
2017-06-30T01:22:26.252Z,933.57
2017-06-30T01:22:39.676Z,933.6
2017-06-30T01:22:53.149Z,933.61
2017-06-30T01:23:06.869Z,933.6
2017-06-30T01:23:20.317Z,933.58
2017-06-30T01:23:33.782Z,933.57
2017-06-30T01:23:47.221Z,933.59
2017-06-30T01:24:00.657Z,933.59
2017-06-30T01:24:14.188Z,933.61
2017-06-30T01:24:27.593Z,933.6
2017-06-30T01:24:41.028Z,933.59
2017-06-30T01:24:54.725Z,933.58
2017-06-30T01:25:08.207Z,933.57
2017-06-30T01:25:21.619Z,933.57
2017-06-30T01:25:35.022Z,933.57
2017-06-30T01:25:48.476Z,933.59
2017-06-30T01:26:01.976Z,933.59
2017-06-30T01:26:15.452Z,933.57
2017-06-30T01:26:28.917Z,933.56
2017-06-30T01:26:41.839Z,933.56
2017-06-30T01:26:55.291Z,933.55
2017-06-30T01:27:08.711Z,933.59
2017-06-30T01:27:22.124Z,933.57
2017-06-30T01:27:35.554Z,933.57
2017-06-30T01:27:49.051Z,933.55
2017-06-30T01:28:02.531Z,933.57
2017-06-30T01:28:15.963Z,933.57
2017-06-30T01:28:29.394Z,933.54
2017-06-30T01:28:42.788Z,933.55
2017-06-30T01:28:56.189Z,933.53
2017-06-30T01:29:09.153Z,933.55
2017-06-30T01:29:22.594Z,933.53
2017-06-30T01:29:36.027Z,933.54
2017-06-30T01:29:49.541Z,933.52
2017-06-30T01:30:03.011Z,933.54
2017-06-30T01:30:15.945Z,933.52
2017-06-30T01:30:29.421Z,933.5
2017-06-30T01:30:42.858Z,933.58
2017-06-30T01:30:55.754Z,933.54
2017-06-30T01:31:09.249Z,933.52
2017-06-30T01:31:22.635Z,933.59
2017-06-30T01:31:36.104Z,933.55
2017-06-30T01:31:49.578Z,933.55
2017-06-30T01:32:02.477Z,933.57
2017-06-30T01:32:15.893Z,933.56
2017-06-30T01:32:29.348Z,933.56
2017-06-30T01:32:42.277Z,933.59
2017-06-30T01:32:55.741Z,933.54
2017-06-30T01:33:09.183Z,933.55
2017-06-30T01:33:22.664Z,933.57
2017-06-30T01:33:36.085Z,933.58
2017-06-30T01:33:49.026Z,933.54
2017-06-30T01:34:01.970Z,933.52
2017-06-30T01:34:15.421Z,933.54
2017-06-30T01:34:28.862Z,933.56
2017-06-30T01:34:42.255Z,933.56
2017-06-30T01:34:55.708Z,933.56
2017-06-30T01:35:09.110Z,933.55
2017-06-30T01:35:22.581Z,933.58
2017-06-30T01:35:36.021Z,933.54
2017-06-30T01:35:50.898Z,933.58
2017-06-30T01:36:03.791Z,933.55
2017-06-30T01:36:17.309Z,933.58
2017-06-30T01:36:30.815Z,933.56
2017-06-30T01:36:44.231Z,933.55
2017-06-30T01:36:57.744Z,933.54
2017-06-30T01:37:11.220Z,933.53
2017-06-30T01:37:24.680Z,933.53
2017-06-30T01:37:38.115Z,933.5
2017-06-30T01:37:51.016Z,933.54
2017-06-30T01:38:04.468Z,933.52
2017-06-30T01:38:18.125Z,933.56
2017-06-30T01:38:31.039Z,933.52
2017-06-30T01:38:44.536Z,933.55
2017-06-30T01:38:57.460Z,933.55
2017-06-30T01:39:10.370Z,933.52
2017-06-30T01:39:23.785Z,933.52
2017-06-30T01:39:37.187Z,933.52
2017-06-30T01:39:50.098Z,933.52
2017-06-30T01:40:03.553Z,933.53
2017-06-30T01:40:16.987Z,933.52
2017-06-30T01:40:30.450Z,933.55
2017-06-30T01:40:43.862Z,933.52
2017-06-30T01:40:57.389Z,933.55
2017-06-30T01:41:10.856Z,933.5
2017-06-30T01:41:24.308Z,933.53
2017-06-30T01:41:37.771Z,933.54
2017-06-30T01:41:51.246Z,933.51
2017-06-30T01:42:04.176Z,933.55
2017-06-30T01:42:17.708Z,933.47
2017-06-30T01:42:31.214Z,933.54
2017-06-30T01:42:44.158Z,933.53
2017-06-30T01:42:57.607Z,933.52
2017-06-30T01:43:11.123Z,933.48
2017-06-30T01:43:24.534Z,933.5
2017-06-30T01:43:37.990Z,933.52
2017-06-30T01:43:50.913Z,933.53
2017-06-30T01:44:04.370Z,933.54
2017-06-30T01:44:17.354Z,933.52
2017-06-30T01:44:30.876Z,933.53
2017-06-30T01:44:43.820Z,933.51
2017-06-30T01:44:57.224Z,933.51
2017-06-30T01:45:10.642Z,933.53
2017-06-30T01:45:24.111Z,933.48
2017-06-30T01:45:37.639Z,933.47
2017-06-30T01:45:50.631Z,933.51
2017-06-30T01:46:04.105Z,933.51
2017-06-30T01:46:17.551Z,933.52
2017-06-30T01:46:30.997Z,933.5
2017-06-30T01:46:44.478Z,933.5
2017-06-30T01:46:57.885Z,933.51
2017-06-30T01:47:11.374Z,933.48
2017-06-30T01:47:24.774Z,933.5
2017-06-30T01:47:38.181Z,933.49
2017-06-30T01:47:51.104Z,933.51
2017-06-30T01:48:04.579Z,933.5
2017-06-30T01:48:17.986Z,933.5
2017-06-30T01:48:30.889Z,933.52
2017-06-30T01:48:44.368Z,933.54
2017-06-30T01:48:57.857Z,933.53
2017-06-30T01:49:11.346Z,933.52
2017-06-30T01:49:24.783Z,933.54
2017-06-30T01:49:38.209Z,933.56
2017-06-30T01:49:51.621Z,933.52
2017-06-30T01:50:05.034Z,933.54
2017-06-30T01:50:18.441Z,933.51
2017-06-30T01:50:31.935Z,933.55
2017-06-30T01:50:45.429Z,933.54
2017-06-30T01:50:58.878Z,933.52
2017-06-30T01:51:12.345Z,933.53
2017-06-30T01:51:25.529Z,933.52
2017-06-30T01:51:38.495Z,933.58
2017-06-30T01:51:51.455Z,933.55
2017-06-30T01:52:04.872Z,933.54
2017-06-30T01:52:18.332Z,933.55
2017-06-30T01:52:31.725Z,933.53
2017-06-30T01:52:45.173Z,933.52
2017-06-30T01:52:58.072Z,933.52
2017-06-30T01:53:11.515Z,933.54
2017-06-30T01:53:25.366Z,933.58
2017-06-30T01:53:38.834Z,933.55
2017-06-30T01:53:52.258Z,933.54
2017-06-30T01:54:05.190Z,933.54
2017-06-30T01:54:18.655Z,933.55
2017-06-30T01:54:32.150Z,933.57
2017-06-30T01:54:45.076Z,933.54
2017-06-30T01:54:58.015Z,933.56
2017-06-30T01:55:11.450Z,933.56
2017-06-30T01:55:24.952Z,933.56
2017-06-30T01:55:38.380Z,933.51
2017-06-30T01:55:51.869Z,933.55
2017-06-30T01:56:05.383Z,933.53
2017-06-30T01:56:18.876Z,933.55
2017-06-30T01:56:32.357Z,933.53
2017-06-30T01:56:45.825Z,933.54
2017-06-30T01:56:59.279Z,933.54
2017-06-30T01:57:12.694Z,933.51
2017-06-30T01:57:26.155Z,933.54
2017-06-30T01:57:39.635Z,933.5
2017-06-30T01:57:52.570Z,933.53
2017-06-30T01:58:06.022Z,933.48
2017-06-30T01:58:19.522Z,933.53
2017-06-30T01:58:33.037Z,933.49
2017-06-30T01:58:46.449Z,933.52
2017-06-30T01:58:59.951Z,933.54
2017-06-30T01:59:13.431Z,933.54
2017-06-30T01:59:26.871Z,933.52
2017-06-30T01:59:40.289Z,933.52
2017-06-30T01:59:53.769Z,933.52
2017-06-30T02:00:07.223Z,933.57
2017-06-30T02:00:20.674Z,933.54
2017-06-30T02:00:34.123Z,933.51
2017-06-30T02:00:47.549Z,933.54
2017-06-30T02:01:01.007Z,933.54
2017-06-30T02:01:14.423Z,933.53
2017-06-30T02:01:27.886Z,933.52
2017-06-30T02:01:41.342Z,933.53
2017-06-30T02:01:54.799Z,933.52
2017-06-30T02:02:08.249Z,933.52
2017-06-30T02:02:21.708Z,933.55
2017-06-30T02:02:35.151Z,933.54
2017-06-30T02:02:48.095Z,933.52
2017-06-30T02:03:01.073Z,933.5
2017-06-30T02:03:14.523Z,933.54
2017-06-30T02:03:28.183Z,933.53
2017-06-30T02:03:41.695Z,933.52
2017-06-30T02:03:55.165Z,933.54
2017-06-30T02:04:08.070Z,933.5
2017-06-30T02:04:21.440Z,933.5
2017-06-30T02:04:34.382Z,933.48
2017-06-30T02:04:47.809Z,933.52
2017-06-30T02:05:00.184Z,933.52
2017-06-30T02:05:13.151Z,933.49
2017-06-30T02:05:26.166Z,933.47
2017-06-30T02:05:39.655Z,933.52
2017-06-30T02:05:53.110Z,933.54
2017-06-30T02:06:06.586Z,933.5
2017-06-30T02:06:20.058Z,933.49
2017-06-30T02:06:33.533Z,933.5
2017-06-30T02:06:46.980Z,933.52
2017-06-30T02:06:59.396Z,933.5
2017-06-30T02:07:12.822Z,933.52
2017-06-30T02:07:26.289Z,933.53
2017-06-30T02:07:39.748Z,933.5
2017-06-30T02:07:53.166Z,933.49
2017-06-30T02:08:06.628Z,933.52
2017-06-30T02:08:20.054Z,933.52
2017-06-30T02:08:33.182Z,933.51
2017-06-30T02:08:46.651Z,933.49
2017-06-30T02:09:00.065Z,933.5
2017-06-30T02:09:13.571Z,933.51
2017-06-30T02:09:26.459Z,933.51
2017-06-30T02:09:39.893Z,933.51
2017-06-30T02:09:53.305Z,933.47
2017-06-30T02:10:06.206Z,933.45
2017-06-30T02:10:19.637Z,933.47
2017-06-30T02:10:33.054Z,933.47
2017-06-30T02:10:46.544Z,933.49
2017-06-30T02:11:00.071Z,933.47
2017-06-30T02:11:13.512Z,933.48
2017-06-30T02:11:27.020Z,933.46
2017-06-30T02:11:40.493Z,933.44
2017-06-30T02:11:53.400Z,933.48
2017-06-30T02:12:06.836Z,933.49
2017-06-30T02:12:20.243Z,933.48
2017-06-30T02:12:33.133Z,933.5
2017-06-30T02:12:46.616Z,933.44
2017-06-30T02:13:00.502Z,933.46
2017-06-30T02:13:13.896Z,933.49
2017-06-30T02:13:27.283Z,933.46
2017-06-30T02:13:40.219Z,933.47
2017-06-30T02:13:53.682Z,933.47
2017-06-30T02:14:06.620Z,933.49
2017-06-30T02:14:19.580Z,933.46
2017-06-30T02:14:33.017Z,933.52
2017-06-30T02:14:46.461Z,933.47
2017-06-30T02:14:59.875Z,933.46
2017-06-30T02:15:12.771Z,933.45
2017-06-30T02:15:26.173Z,933.49
2017-06-30T02:15:39.065Z,933.51
2017-06-30T02:15:52.709Z,933.49
2017-06-30T02:16:06.143Z,933.51
2017-06-30T02:16:19.571Z,933.48
2017-06-30T02:16:33.010Z,933.48
2017-06-30T02:16:46.423Z,933.48
2017-06-30T02:16:59.854Z,933.48
2017-06-30T02:17:13.268Z,933.47
2017-06-30T02:17:26.698Z,933.48
2017-06-30T02:17:40.151Z,933.5
2017-06-30T02:17:53.552Z,933.48
2017-06-30T02:18:06.981Z,933.45
2017-06-30T02:18:19.377Z,933.49
2017-06-30T02:18:32.857Z,933.47
2017-06-30T02:18:46.267Z,933.47
2017-06-30T02:18:59.222Z,933.47
2017-06-30T02:19:12.712Z,933.46
2017-06-30T02:19:26.203Z,933.47
2017-06-30T02:19:39.656Z,933.46
2017-06-30T02:19:53.128Z,933.47
2017-06-30T02:20:06.099Z,933.44
2017-06-30T02:20:18.492Z,933.44
2017-06-30T02:20:31.967Z,933.45
2017-06-30T02:20:44.389Z,933.47
2017-06-30T02:20:57.819Z,933.46
2017-06-30T02:21:11.327Z,933.45
2017-06-30T02:21:24.761Z,933.45
2017-06-30T02:21:38.190Z,933.45
2017-06-30T02:21:51.710Z,933.46
2017-06-30T02:22:05.231Z,933.42
2017-06-30T02:22:18.187Z,933.44
2017-06-30T02:22:31.711Z,933.44
2017-06-30T02:22:45.174Z,933.41
2017-06-30T02:22:58.572Z,933.44
2017-06-30T02:23:11.436Z,933.43
2017-06-30T02:23:24.875Z,933.43
2017-06-30T02:23:38.702Z,933.43
2017-06-30T02:23:52.174Z,933.42
2017-06-30T02:24:05.599Z,933.44
2017-06-30T02:24:19.043Z,933.44
2017-06-30T02:24:32.481Z,933.43
2017-06-30T02:24:45.499Z,933.45
2017-06-30T02:24:58.910Z,933.43
2017-06-30T02:25:12.355Z,933.42
2017-06-30T02:25:25.250Z,933.38
2017-06-30T02:25:38.140Z,933.41
2017-06-30T02:25:51.564Z,933.4
2017-06-30T02:26:04.997Z,933.4
2017-06-30T02:26:18.461Z,933.42
2017-06-30T02:26:31.331Z,933.4
2017-06-30T02:26:44.792Z,933.41
2017-06-30T02:26:58.304Z,933.39
2017-06-30T02:27:11.768Z,933.43
2017-06-30T02:27:25.166Z,933.39
2017-06-30T02:27:38.612Z,933.39
2017-06-30T02:27:52.158Z,933.39
2017-06-30T02:28:05.611Z,933.39
2017-06-30T02:28:18.016Z,933.4
2017-06-30T02:28:31.482Z,933.39
2017-06-30T02:28:44.377Z,933.4
2017-06-30T02:28:57.826Z,933.39
2017-06-30T02:29:11.327Z,933.4
2017-06-30T02:29:24.229Z,933.36
2017-06-30T02:29:37.644Z,933.37
2017-06-30T02:29:51.119Z,933.34
2017-06-30T02:30:04.546Z,933.39
2017-06-30T02:30:17.936Z,933.32
2017-06-30T02:30:31.447Z,933.35
2017-06-30T02:30:44.950Z,933.37
2017-06-30T02:30:58.353Z,933.36
2017-06-30T02:31:11.810Z,933.37
2017-06-30T02:31:25.310Z,933.38
2017-06-30T02:31:38.751Z,933.36
2017-06-30T02:31:52.212Z,933.37
2017-06-30T02:32:05.864Z,933.36
2017-06-30T02:32:19.277Z,933.37
2017-06-30T02:32:32.721Z,933.36
2017-06-30T02:32:45.109Z,933.33
2017-06-30T02:32:58.555Z,933.35
2017-06-30T02:33:12.045Z,933.37
2017-06-30T02:33:25.446Z,933.34
2017-06-30T02:33:39.181Z,933.33
2017-06-30T02:33:52.588Z,933.36
2017-06-30T02:34:05.999Z,933.35
2017-06-30T02:34:19.447Z,933.36
2017-06-30T02:34:31.831Z,933.34
2017-06-30T02:34:44.844Z,933.39
2017-06-30T02:34:58.342Z,933.36
2017-06-30T02:35:11.869Z,933.37
2017-06-30T02:35:25.357Z,933.32
2017-06-30T02:35:38.817Z,933.35
2017-06-30T02:35:52.253Z,933.34
2017-06-30T02:36:05.671Z,933.32
2017-06-30T02:36:19.090Z,933.36
2017-06-30T02:36:32.542Z,933.37
2017-06-30T02:36:45.952Z,933.36
2017-06-30T02:36:59.482Z,933.39
2017-06-30T02:37:12.910Z,933.39
2017-06-30T02:37:26.351Z,933.35
2017-06-30T02:37:39.837Z,933.39
2017-06-30T02:37:53.361Z,933.32
2017-06-30T02:38:06.315Z,933.4
2017-06-30T02:38:19.736Z,933.38
2017-06-30T02:38:33.194Z,933.34
2017-06-30T02:38:46.856Z,933.42
2017-06-30T02:39:00.251Z,933.41
2017-06-30T02:39:13.717Z,933.39
2017-06-30T02:39:27.177Z,933.38
2017-06-30T02:39:40.631Z,933.38
2017-06-30T02:39:54.122Z,933.38
2017-06-30T02:40:07.670Z,933.35
2017-06-30T02:40:21.153Z,933.38
2017-06-30T02:40:34.079Z,933.36
2017-06-30T02:40:47.543Z,933.34
2017-06-30T02:41:01.024Z,933.36
2017-06-30T02:41:14.522Z,933.32
2017-06-30T02:41:27.938Z,933.28
2017-06-30T02:41:40.359Z,933.33
2017-06-30T02:41:53.824Z,933.35
2017-06-30T02:42:07.271Z,933.32
2017-06-30T02:42:20.750Z,933.31
2017-06-30T02:42:34.274Z,933.33
2017-06-30T02:42:47.766Z,933.33
2017-06-30T02:43:01.252Z,933.31
2017-06-30T02:43:14.674Z,933.32
2017-06-30T02:43:27.554Z,933.24
2017-06-30T02:43:40.962Z,933.28
2017-06-30T02:43:54.451Z,933.33
2017-06-30T02:44:07.896Z,933.29
2017-06-30T02:44:20.825Z,933.3
2017-06-30T02:44:34.286Z,933.32
2017-06-30T02:44:47.695Z,933.32
2017-06-30T02:45:00.654Z,933.32
2017-06-30T02:45:14.086Z,933.3
2017-06-30T02:45:27.002Z,933.26
2017-06-30T02:45:40.529Z,933.31
2017-06-30T02:45:53.999Z,933.3
2017-06-30T02:46:07.476Z,933.31
2017-06-30T02:46:20.948Z,933.32
2017-06-30T02:46:34.469Z,933.32
2017-06-30T02:46:47.974Z,933.28
2017-06-30T02:47:01.438Z,933.28